100LL.CA
Aviation Fuel Pricing for Canadians
Please upgrade your browser - Tested with IE9, FireFox, Chrome, Safari

Fuel Airports Other Help
Prices Economy Info List METAR/TAF Kneeboard Help

Reference Airport: KAPUSKASING, ON
N 49 24 41.72  W 082 28 10.35
Provinces to show:

CYYU KAPUSKASING, ON
WEATHER
METARCYYU 230438Z 34017G27KT 1SM -SN BLSN OVC016 M15/M18 A2957 RMK SN4SC4 PRESRR SLP036
TAFTAF AMD CYYU 230406Z 2304/2314 33017G27KT 6SM -SN OVC020 TEMPO 2304/2306 1/2SM SN BLSN VV005 FM230600 33012G22KT P6SM OVC020 TEMPO 2306/2314 OVC030 BECMG 2310/2312 33010KT RMK NXT FCST BY 230800Z
OTHER SITES

FlightAware

FltPlan

Google Maps

SkyVector
FUEL
FBO 100LL
member
100LL
public
JETA MOGAS
Kap Aviation Fuels (2020-08-19)1.9101.320
Canada Flight Supplement - CYYU
(opens in new tab/window)


Please Send Updates!

Desktop Version ]  [ Mobile Version ]  [ Disclaimer ]